createdAt,value
2019-05-07T00:01:52.475Z,16.20
2019-05-07T00:04:22.439Z,16.20
2019-05-07T00:06:52.804Z,16.20
2019-05-07T00:09:23.344Z,16.30
2019-05-07T00:11:53.468Z,16.30
2019-05-07T00:14:24.680Z,16.30
2019-05-07T00:16:54.056Z,16.30
2019-05-07T00:19:24.474Z,16.20
2019-05-07T00:21:54.115Z,16.20
2019-05-07T00:24:23.497Z,16.20
2019-05-07T00:26:53.347Z,16.20
2019-05-07T00:29:22.935Z,16.20
2019-05-07T00:31:52.320Z,16.20
2019-05-07T00:34:24.483Z,16.20
2019-05-07T00:37:07.297Z,16.20
2019-05-07T00:39:53.639Z,16.20
2019-05-07T00:42:33.543Z,16.20
2019-05-07T00:45:17.076Z,16.10
2019-05-07T00:47:38.868Z,16.10
2019-05-07T00:52:47.274Z,16.00
2019-05-07T00:55:17.749Z,16.00
2019-05-07T00:57:47.224Z,16.00
2019-05-07T01:00:16.832Z,16.10
2019-05-07T01:02:46.287Z,16.00
2019-05-07T01:05:15.678Z,16.00
2019-05-07T01:07:45.079Z,16.00
2019-05-07T01:10:14.803Z,15.90
2019-05-07T01:12:44.211Z,16.00
2019-05-07T01:15:27.142Z,15.90
2019-05-07T01:17:45.264Z,16.00
2019-05-07T01:20:14.717Z,15.90
2019-05-07T01:22:44.180Z,15.90
2019-05-07T01:25:13.763Z,15.90
2019-05-07T01:27:43.146Z,15.90
2019-05-07T01:30:13.511Z,15.80
2019-05-07T01:32:50.272Z,15.90
2019-05-07T01:35:28.281Z,15.90
2019-05-07T01:37:57.720Z,15.80
2019-05-07T01:40:27.103Z,15.80
2019-05-07T01:42:56.503Z,15.80
2019-05-07T01:45:25.882Z,15.80
2019-05-07T01:47:55.295Z,15.80
2019-05-07T01:50:24.665Z,15.80
2019-05-07T01:52:54.200Z,15.80
2019-05-07T01:55:23.567Z,15.70
2019-05-07T01:57:52.969Z,15.80
2019-05-07T02:00:22.557Z,15.80
2019-05-07T02:02:53.726Z,15.70
2019-05-07T02:05:27.461Z,15.80
2019-05-07T02:07:58.647Z,15.70
2019-05-07T02:10:38.663Z,15.70
2019-05-07T02:13:08.057Z,15.70
2019-05-07T02:15:37.507Z,15.70
2019-05-07T02:18:07.031Z,15.60
2019-05-07T02:20:37.032Z,15.60
2019-05-07T02:23:06.423Z,15.60
2019-05-07T02:25:35.815Z,15.60
2019-05-07T02:28:05.199Z,15.60
2019-05-07T02:30:35.373Z,15.60
2019-05-07T02:33:04.967Z,15.60
2019-05-07T02:35:35.595Z,15.50
2019-05-07T02:38:06.671Z,15.60
2019-05-07T02:40:43.131Z,15.60
2019-05-07T02:43:14.048Z,15.50
2019-05-07T02:45:56.222Z,15.60
2019-05-07T02:48:27.318Z,15.50
2019-05-07T02:51:13.129Z,15.50
2019-05-07T02:53:46.464Z,15.50
2019-05-07T02:56:18.398Z,15.50
2019-05-07T02:58:48.331Z,15.40
2019-05-07T03:01:17.800Z,15.40
2019-05-07T03:03:47.321Z,15.50
2019-05-07T03:06:17.724Z,15.50
2019-05-07T03:08:47.104Z,15.50
2019-05-07T03:11:16.471Z,15.50
2019-05-07T03:13:46.004Z,15.50
2019-05-07T03:16:15.455Z,15.40
2019-05-07T03:18:44.915Z,15.40
2019-05-07T03:21:18.326Z,15.40
2019-05-07T03:24:04.559Z,15.40
2019-05-07T03:26:35.640Z,15.40
2019-05-07T03:29:06.773Z,15.40
2019-05-07T03:31:46.329Z,15.40
2019-05-07T03:34:16.211Z,15.30
2019-05-07T03:36:55.782Z,15.30
2019-05-07T03:39:23.809Z,15.30
2019-05-07T03:41:53.183Z,15.30
2019-05-07T03:44:33.978Z,15.30
2019-05-07T03:47:23.502Z,15.30
2019-05-07T03:49:53.482Z,15.30
2019-05-07T03:52:24.407Z,15.30
2019-05-07T03:54:54.343Z,15.30
2019-05-07T03:57:24.151Z,15.20
2019-05-07T03:59:54.651Z,15.20
2019-05-07T04:02:24.276Z,15.30
2019-05-07T04:04:53.719Z,15.30
2019-05-07T04:07:23.539Z,15.30
2019-05-07T04:09:53.580Z,15.40
2019-05-07T04:12:23.996Z,15.40
2019-05-07T04:14:53.863Z,15.40
2019-05-07T04:17:27.002Z,15.40
2019-05-07T04:19:54.498Z,15.50
2019-05-07T04:22:28.621Z,15.50
2019-05-07T04:25:04.347Z,15.40
2019-05-07T04:27:47.075Z,15.50
2019-05-07T04:30:15.609Z,15.50
2019-05-07T04:32:46.661Z,15.30
2019-05-07T04:35:17.751Z,15.30
2019-05-07T04:37:47.163Z,15.30
2019-05-07T04:40:16.680Z,15.10
2019-05-07T04:42:59.616Z,15.00
2019-05-07T04:45:29.031Z,14.90
2019-05-07T04:47:58.498Z,14.80
2019-05-07T04:50:39.255Z,14.80
2019-05-07T04:53:03.301Z,14.90
2019-05-07T04:55:33.580Z,15.00
2019-05-07T04:58:08.504Z,15.10
2019-05-07T05:00:34.338Z,15.20
2019-05-07T05:03:05.427Z,15.30
2019-05-07T05:05:34.966Z,15.40
2019-05-07T05:08:04.610Z,15.50
2019-05-07T05:10:34.005Z,15.40
2019-05-07T05:13:03.486Z,15.50
2019-05-07T05:15:32.952Z,15.50
2019-05-07T05:18:02.806Z,15.60
2019-05-07T05:20:35.190Z,15.60
2019-05-07T05:23:06.223Z,15.60
2019-05-07T05:25:37.289Z,15.70
2019-05-07T05:28:06.683Z,15.60
2019-05-07T05:30:37.715Z,15.50
2019-05-07T05:33:07.196Z,15.50
2019-05-07T05:35:38.623Z,15.40
2019-05-07T05:38:08.118Z,15.40
2019-05-07T05:40:37.548Z,15.40
2019-05-07T05:43:12.723Z,15.50
2019-05-07T05:45:44.023Z,15.60
2019-05-07T05:48:13.767Z,15.60
2019-05-07T05:50:53.874Z,15.70
2019-05-07T05:53:27.586Z,15.70
2019-05-07T05:55:58.635Z,15.70
2019-05-07T05:58:29.680Z,15.80
2019-05-07T06:01:02.544Z,15.90
2019-05-07T06:03:43.089Z,16.00
2019-05-07T06:06:16.861Z,16.00
2019-05-07T06:09:04.423Z,15.90
2019-05-07T06:11:47.935Z,15.90
2019-05-07T06:14:22.275Z,16.00
2019-05-07T06:16:56.059Z,16.00
2019-05-07T06:19:29.690Z,16.00
2019-05-07T06:22:06.741Z,16.00
2019-05-07T06:24:37.784Z,16.00
2019-05-07T06:27:07.351Z,16.10
2019-05-07T06:29:36.727Z,16.10
2019-05-07T06:32:07.844Z,16.20
2019-05-07T06:34:37.324Z,16.30
2019-05-07T06:37:06.714Z,16.40
2019-05-07T06:39:37.972Z,16.40
2019-05-07T06:42:25.131Z,16.40
2019-05-07T06:45:12.422Z,16.40
2019-05-07T06:47:42.453Z,16.50
2019-05-07T06:50:12.607Z,16.50
2019-05-07T06:52:42.646Z,16.50
2019-05-07T06:55:13.939Z,16.50
2019-05-07T06:57:43.440Z,16.60
2019-05-07T07:00:17.741Z,16.70
2019-05-07T07:03:07.836Z,16.70
2019-05-07T07:05:38.939Z,16.70
2019-05-07T07:08:19.979Z,16.80
2019-05-07T07:10:52.144Z,16.70
2019-05-07T07:13:23.634Z,16.70
2019-05-07T07:15:53.085Z,16.70
2019-05-07T07:18:23.099Z,16.70
2019-05-07T07:20:52.636Z,16.70
2019-05-07T07:23:22.777Z,16.80
2019-05-07T07:25:52.347Z,16.90
2019-05-07T07:28:22.976Z,16.90
2019-05-07T07:30:56.496Z,16.90
2019-05-07T07:33:27.532Z,17.00
2019-05-07T07:35:57.350Z,17.00
2019-05-07T07:38:33.036Z,17.10
2019-05-07T07:41:22.262Z,17.10
2019-05-07T07:43:52.618Z,17.10
2019-05-07T07:46:22.389Z,17.00
2019-05-07T07:49:04.362Z,17.10
2019-05-07T07:51:36.706Z,17.20
2019-05-07T07:53:54.157Z,17.20
2019-05-07T07:56:50.172Z,17.20
2019-05-07T07:59:14.123Z,17.30
2019-05-07T08:01:47.848Z,17.30
2019-05-07T08:04:17.431Z,17.30
2019-05-07T08:06:48.518Z,17.30
2019-05-07T08:09:17.919Z,17.30
2019-05-07T08:11:47.332Z,17.40
2019-05-07T08:14:16.795Z,17.40
2019-05-07T08:16:46.179Z,17.50
2019-05-07T08:19:21.537Z,17.60
2019-05-07T08:21:46.752Z,17.60
2019-05-07T08:24:16.161Z,17.70
2019-05-07T08:26:45.626Z,17.70
2019-05-07T08:29:15.035Z,17.70
2019-05-07T08:31:49.224Z,17.80
2019-05-07T08:34:38.346Z,17.90
2019-05-07T08:37:07.817Z,17.90
2019-05-07T08:39:37.467Z,17.90
2019-05-07T08:42:06.994Z,17.90
2019-05-07T08:44:39.099Z,17.90
2019-05-07T08:47:22.855Z,17.90
2019-05-07T08:49:52.513Z,18.00
2019-05-07T08:52:41.972Z,18.10
2019-05-07T08:55:12.552Z,18.10
2019-05-07T08:57:42.251Z,18.20
2019-05-07T09:00:14.831Z,18.20
2019-05-07T09:02:44.360Z,18.20
2019-05-07T09:05:13.873Z,18.20
2019-05-07T09:07:43.347Z,18.20
2019-05-07T09:10:12.967Z,18.20
2019-05-07T09:12:42.952Z,18.10
2019-05-07T09:15:12.832Z,18.20
2019-05-07T09:17:42.469Z,18.10
2019-05-07T09:20:28.489Z,18.10
2019-05-07T09:22:57.956Z,18.00
2019-05-07T09:25:28.557Z,18.00
2019-05-07T09:27:57.945Z,18.10
2019-05-07T09:30:45.238Z,18.00
2019-05-07T09:33:16.267Z,18.00
2019-05-07T09:35:48.395Z,18.00
2019-05-07T09:38:17.844Z,18.00
2019-05-07T09:40:47.359Z,18.00
2019-05-07T09:43:16.767Z,18.00
2019-05-07T09:45:46.155Z,18.00
2019-05-07T09:48:15.688Z,18.00
2019-05-07T09:50:45.144Z,18.00
2019-05-07T09:53:14.531Z,18.10
2019-05-07T09:55:44.979Z,18.00
2019-05-07T09:58:14.515Z,18.10
2019-05-07T10:00:43.882Z,18.10
2019-05-07T10:03:13.267Z,18.10
2019-05-07T10:05:42.961Z,18.10
2019-05-07T10:08:13.068Z,18.10
2019-05-07T10:10:45.287Z,18.10
2019-05-07T10:13:16.395Z,18.10
2019-05-07T10:15:45.936Z,18.10
2019-05-07T10:18:35.342Z,18.10
2019-05-07T10:21:04.963Z,18.10
2019-05-07T10:23:34.571Z,18.10
2019-05-07T10:26:04.188Z,18.10
2019-05-07T10:28:33.631Z,18.10
2019-05-07T10:31:16.569Z,18.10
2019-05-07T10:33:46.243Z,18.10
2019-05-07T10:36:15.631Z,18.00
2019-05-07T10:38:45.090Z,18.00
2019-05-07T10:41:15.531Z,18.00
2019-05-07T10:43:44.926Z,18.10
2019-05-07T10:46:34.306Z,18.10
2019-05-07T10:49:08.115Z,18.00
2019-05-07T10:51:37.738Z,18.00
2019-05-07T10:54:07.128Z,18.00
2019-05-07T10:56:36.541Z,18.00
2019-05-07T10:59:05.939Z,18.00
2019-05-07T11:01:37.796Z,18.00
2019-05-07T11:04:07.283Z,18.00
2019-05-07T11:06:36.818Z,18.10
2019-05-07T11:09:08.154Z,18.00
2019-05-07T11:11:37.896Z,18.00
2019-05-07T11:14:07.478Z,18.10
2019-05-07T11:16:55.147Z,18.20
2019-05-07T11:19:26.999Z,18.10
2019-05-07T11:21:56.411Z,18.20
2019-05-07T11:24:25.783Z,18.10
2019-05-07T11:26:55.179Z,18.10
2019-05-07T11:29:24.563Z,18.10
2019-05-07T11:31:54.018Z,18.20
2019-05-07T11:34:23.407Z,18.20
2019-05-07T11:36:52.896Z,18.20
2019-05-07T11:39:22.720Z,18.30
2019-05-07T11:41:53.846Z,18.30
2019-05-07T11:44:24.891Z,18.30
2019-05-07T11:47:12.388Z,18.20
2019-05-07T11:49:59.599Z,18.20
2019-05-07T11:52:35.236Z,18.20
2019-05-07T11:55:03.149Z,18.20
2019-05-07T11:57:35.370Z,18.20
2019-05-07T12:00:09.694Z,18.20
2019-05-07T12:02:58.588Z,18.20
2019-05-07T12:05:27.978Z,18.20
2019-05-07T12:07:59.765Z,18.20
2019-05-07T12:10:29.156Z,18.20
2019-05-07T12:13:12.796Z,18.30
2019-05-07T12:15:43.345Z,18.30
2019-05-07T12:18:12.870Z,18.30
2019-05-07T12:20:42.406Z,18.30
2019-05-07T12:23:12.139Z,18.40
2019-05-07T12:25:42.333Z,18.40
2019-05-07T12:28:13.271Z,18.40
2019-05-07T12:31:01.031Z,18.40
2019-05-07T12:33:44.008Z,18.30
2019-05-07T12:36:15.036Z,18.40
2019-05-07T12:38:44.494Z,18.30
2019-05-07T12:41:34.002Z,18.30
2019-05-07T12:44:06.951Z,18.30
2019-05-07T12:46:36.991Z,18.30
2019-05-07T12:49:06.549Z,18.30
2019-05-07T12:51:38.090Z,18.30
2019-05-07T12:54:12.072Z,18.30
2019-05-07T12:56:43.527Z,18.30
2019-05-07T12:59:13.050Z,18.30
2019-05-07T13:02:00.455Z,18.30
2019-05-07T13:04:32.540Z,18.30
2019-05-07T13:07:11.568Z,18.30
2019-05-07T13:09:42.655Z,18.40
2019-05-07T13:12:11.781Z,18.40
2019-05-07T13:14:41.316Z,18.30
2019-05-07T13:17:12.077Z,18.40
2019-05-07T13:19:42.897Z,18.40
2019-05-07T13:22:13.014Z,18.40
2019-05-07T13:24:42.741Z,18.40
2019-05-07T13:27:12.193Z,18.40
2019-05-07T13:29:42.477Z,18.40
2019-05-07T13:32:14.993Z,18.40
2019-05-07T13:34:45.627Z,18.50
2019-05-07T13:37:17.515Z,18.50
2019-05-07T13:39:48.668Z,18.50
2019-05-07T13:42:35.889Z,18.40
2019-05-07T13:45:12.026Z,18.40
2019-05-07T13:47:41.794Z,18.40
2019-05-07T13:50:11.914Z,18.40
2019-05-07T13:52:43.386Z,18.50
2019-05-07T13:55:13.270Z,18.50
2019-05-07T13:57:43.052Z,18.50
2019-05-07T14:00:14.607Z,18.50
2019-05-07T14:02:44.108Z,18.50
2019-05-07T14:05:14.503Z,18.50
2019-05-07T14:07:44.379Z,18.50
2019-05-07T14:10:14.166Z,18.60
2019-05-07T14:12:43.619Z,18.60
2019-05-07T14:15:13.512Z,18.60
2019-05-07T14:17:43.153Z,18.60
2019-05-07T14:20:13.115Z,18.60
2019-05-07T14:22:42.692Z,18.60
2019-05-07T14:25:12.433Z,18.60
2019-05-07T14:27:42.861Z,18.60
2019-05-07T14:30:13.418Z,18.60
2019-05-07T14:32:53.384Z,18.60
2019-05-07T14:35:27.113Z,18.60
2019-05-07T14:38:03.839Z,18.60
2019-05-07T14:40:33.226Z,18.60
2019-05-07T14:43:04.247Z,18.60
2019-05-07T14:45:33.852Z,18.70
2019-05-07T14:48:03.236Z,18.70
2019-05-07T14:50:33.141Z,18.70
2019-05-07T14:53:02.908Z,18.70
2019-05-07T14:55:33.964Z,18.70
2019-05-07T14:58:03.602Z,18.80
2019-05-07T15:00:35.185Z,18.80
2019-05-07T15:03:04.453Z,18.90
2019-05-07T15:05:33.931Z,18.80
2019-05-07T15:08:10.485Z,18.90
2019-05-07T15:10:34.482Z,18.90
2019-05-07T15:13:03.935Z,19.00
2019-05-07T15:15:33.348Z,18.90
2019-05-07T15:18:06.940Z,18.90
2019-05-07T15:20:36.314Z,18.80
2019-05-07T15:23:11.954Z,18.80
2019-05-07T15:25:42.376Z,18.80
2019-05-07T15:28:12.313Z,18.70
2019-05-07T15:30:45.147Z,18.70
2019-05-07T15:33:14.569Z,18.70
2019-05-07T15:35:44.019Z,18.70
2019-05-07T15:38:13.424Z,18.70
2019-05-07T15:41:03.277Z,18.80
2019-05-07T15:43:32.703Z,18.80
2019-05-07T15:46:02.212Z,18.80
2019-05-07T15:48:45.880Z,18.80
2019-05-07T15:51:17.017Z,18.80
2019-05-07T15:53:48.279Z,18.80
2019-05-07T15:56:17.739Z,18.80
2019-05-07T15:58:47.144Z,18.80
2019-05-07T16:01:16.674Z,18.80
2019-05-07T16:03:47.858Z,18.80
2019-05-07T16:06:17.274Z,18.80
2019-05-07T16:08:49.213Z,18.80
2019-05-07T16:11:18.766Z,18.80
2019-05-07T16:14:04.905Z,18.80
2019-05-07T16:16:36.131Z,18.70
2019-05-07T16:19:12.945Z,18.70
2019-05-07T16:21:42.646Z,18.70
2019-05-07T16:24:12.291Z,18.70
2019-05-07T16:26:42.037Z,18.70
2019-05-07T16:29:13.269Z,18.80
2019-05-07T16:31:44.156Z,18.70
2019-05-07T16:34:13.711Z,18.70
2019-05-07T16:36:43.102Z,18.70
2019-05-07T16:39:12.497Z,18.80
2019-05-07T16:41:55.633Z,18.80
2019-05-07T16:44:25.036Z,18.80
2019-05-07T16:46:56.060Z,18.80
2019-05-07T16:49:25.427Z,18.80
2019-05-07T16:51:54.897Z,18.70
2019-05-07T16:54:24.353Z,18.70
2019-05-07T16:57:12.315Z,18.70
2019-05-07T16:59:42.701Z,18.70
2019-05-07T17:02:13.991Z,18.70
2019-05-07T17:05:03.124Z,18.70
2019-05-07T17:07:34.752Z,18.60
2019-05-07T17:10:08.808Z,18.70
2019-05-07T17:12:41.692Z,18.60
2019-05-07T17:15:12.416Z,18.60
2019-05-07T17:17:42.735Z,18.60
2019-05-07T17:20:12.965Z,18.60
2019-05-07T17:22:42.746Z,18.60
2019-05-07T17:25:30.412Z,18.60
2019-05-07T17:28:13.663Z,18.60
2019-05-07T17:30:43.048Z,18.60
2019-05-07T17:33:12.921Z,18.60
2019-05-07T17:35:42.584Z,18.70
2019-05-07T17:38:12.921Z,18.60
2019-05-07T17:40:42.646Z,18.60
2019-05-07T17:43:12.411Z,18.70
2019-05-07T17:45:42.921Z,18.70
2019-05-07T17:48:12.767Z,18.70
2019-05-07T17:50:43.806Z,18.70
2019-05-07T17:53:13.614Z,18.70
2019-05-07T17:55:43.002Z,18.80
2019-05-07T17:58:12.921Z,18.80
2019-05-07T18:00:45.496Z,18.80
2019-05-07T18:03:32.854Z,18.70
2019-05-07T18:06:04.745Z,18.70
2019-05-07T18:08:34.204Z,18.60
2019-05-07T18:11:16.737Z,18.60
2019-05-07T18:13:34.895Z,18.70
2019-05-07T18:16:12.232Z,18.80
2019-05-07T18:18:43.194Z,18.80
2019-05-07T18:21:12.792Z,18.80
2019-05-07T18:23:42.267Z,18.70
2019-05-07T18:26:20.609Z,18.70
2019-05-07T18:28:42.848Z,18.80
2019-05-07T18:31:15.658Z,18.70
2019-05-07T18:33:52.391Z,18.70
2019-05-07T18:36:22.667Z,18.60
2019-05-07T18:38:52.833Z,18.60
2019-05-07T18:41:22.506Z,18.50
2019-05-07T18:43:54.476Z,18.50
2019-05-07T18:46:23.011Z,18.50
2019-05-07T18:48:52.495Z,18.50
2019-05-07T18:51:21.858Z,18.40
2019-05-07T18:53:51.937Z,18.40
2019-05-07T18:56:22.122Z,18.40
2019-05-07T18:58:52.117Z,18.40
2019-05-07T19:01:24.011Z,18.40
2019-05-07T19:03:53.965Z,18.30
2019-05-07T19:06:23.374Z,18.30
2019-05-07T19:08:52.811Z,18.30
2019-05-07T19:11:22.794Z,18.30
2019-05-07T19:13:53.483Z,18.30
2019-05-07T19:16:23.466Z,18.30
2019-05-07T19:18:53.921Z,18.30
2019-05-07T19:21:24.515Z,18.30
2019-05-07T19:23:53.972Z,18.30
2019-05-07T19:26:23.446Z,18.20
2019-05-07T19:28:53.001Z,18.20
2019-05-07T19:31:22.422Z,18.20
2019-05-07T19:33:52.511Z,18.20
2019-05-07T19:36:22.410Z,18.20
2019-05-07T19:38:52.697Z,18.10
2019-05-07T19:41:36.157Z,18.10
2019-05-07T19:44:05.525Z,18.10
2019-05-07T19:46:34.933Z,18.10
2019-05-07T19:49:07.030Z,18.00
2019-05-07T19:51:36.551Z,18.00
2019-05-07T19:54:05.947Z,18.00
2019-05-07T19:56:35.420Z,17.90
2019-05-07T19:59:04.892Z,17.90
2019-05-07T20:01:36.205Z,17.90
2019-05-07T20:04:05.645Z,17.80
2019-05-07T20:06:35.044Z,17.80
2019-05-07T20:09:12.438Z,17.80
2019-05-07T20:11:42.475Z,17.80
2019-05-07T20:14:13.118Z,17.90
2019-05-07T20:16:43.049Z,17.80
2019-05-07T20:19:12.555Z,17.80
2019-05-07T20:21:43.987Z,17.70
2019-05-07T20:24:13.515Z,17.80
2019-05-07T20:26:48.417Z,17.80
2019-05-07T20:29:17.932Z,17.80
2019-05-07T20:31:47.509Z,17.70
2019-05-07T20:34:17.018Z,17.70
2019-05-07T20:36:46.459Z,17.70
2019-05-07T20:39:15.923Z,17.70
2019-05-07T20:41:45.332Z,17.70
2019-05-07T20:44:14.901Z,17.70
2019-05-07T20:46:44.610Z,17.70
2019-05-07T20:49:14.059Z,17.70
2019-05-07T20:51:43.487Z,17.70
2019-05-07T20:54:14.660Z,17.60
2019-05-07T20:56:46.713Z,17.60
2019-05-07T20:59:16.386Z,17.70
2019-05-07T21:01:45.806Z,17.60
2019-05-07T21:04:15.209Z,17.60
2019-05-07T21:06:44.595Z,17.60
2019-05-07T21:09:14.035Z,17.60
2019-05-07T21:11:43.419Z,17.60
2019-05-07T21:14:13.094Z,17.50
2019-05-07T21:16:42.673Z,17.50
2019-05-07T21:19:12.878Z,17.50
2019-05-07T21:21:42.437Z,17.60
2019-05-07T21:24:13.242Z,17.60
2019-05-07T21:26:42.704Z,17.60
2019-05-07T21:29:13.814Z,17.60
2019-05-07T21:31:43.464Z,17.60
2019-05-07T21:34:12.990Z,17.60
2019-05-07T21:36:43.363Z,17.60
2019-05-07T21:39:14.002Z,17.60
2019-05-07T21:41:43.404Z,17.60
2019-05-07T21:44:12.806Z,17.60
2019-05-07T21:46:42.708Z,17.70
2019-05-07T21:49:12.478Z,17.60
2019-05-07T21:51:41.978Z,17.60
2019-05-07T21:54:25.113Z,17.60
2019-05-07T21:57:02.133Z,17.70
2019-05-07T21:59:36.218Z,17.60
2019-05-07T22:02:08.188Z,17.60
2019-05-07T22:04:37.970Z,17.60
2019-05-07T22:07:07.449Z,17.60
2019-05-07T22:09:36.835Z,17.50
2019-05-07T22:12:06.293Z,17.50
2019-05-07T22:14:35.697Z,17.60
2019-05-07T22:17:05.579Z,17.50
2019-05-07T22:19:34.975Z,17.60
2019-05-07T22:22:04.495Z,17.60
2019-05-07T22:24:33.885Z,17.60
2019-05-07T22:27:04.279Z,17.60
2019-05-07T22:29:33.803Z,17.50
2019-05-07T22:32:04.967Z,17.50
2019-05-07T22:34:36.079Z,17.50
2019-05-07T22:37:06.302Z,17.50
2019-05-07T22:39:40.112Z,17.50
2019-05-07T22:42:19.627Z,17.50
2019-05-07T22:45:03.380Z,17.60
2019-05-07T22:47:33.916Z,17.60
2019-05-07T22:50:03.843Z,17.50
2019-05-07T22:52:33.231Z,17.50
2019-05-07T22:55:02.636Z,17.50
2019-05-07T22:57:33.674Z,17.60
2019-05-07T23:00:04.854Z,17.60
2019-05-07T23:02:35.968Z,17.60
2019-05-07T23:05:06.704Z,17.60
2019-05-07T23:07:36.102Z,17.50
2019-05-07T23:10:05.944Z,17.50
2019-05-07T23:12:35.475Z,17.50
2019-05-07T23:15:06.987Z,17.50
2019-05-07T23:17:36.468Z,17.50
2019-05-07T23:20:07.283Z,17.50
2019-05-07T23:22:36.704Z,17.50
2019-05-07T23:25:07.025Z,17.50
2019-05-07T23:27:36.487Z,17.60
2019-05-07T23:30:06.330Z,17.50
2019-05-07T23:32:35.794Z,17.50
2019-05-07T23:35:05.427Z,17.50
2019-05-07T23:37:34.807Z,17.50
2019-05-07T23:40:14.027Z,17.50
2019-05-07T23:42:45.074Z,17.50
2019-05-07T23:45:14.519Z,17.50
2019-05-07T23:47:44.967Z,17.50
2019-05-07T23:50:14.348Z,17.50
2019-05-07T23:52:44.166Z,17.50
2019-05-07T23:55:14.914Z,17.40
2019-05-07T23:57:44.297Z,17.40
